»·PEaware :: UPS4490 KSFO-KLAX

UPS4490 :: KSFO-KLAX

FLIGHT INFORMATION

Flight Status: Arrived
Operator:
United Parcel Service
More flights by this operator :: More flights under this callsign
Pilot: Marc M. (20543)
Aircraft: BOEING 747-400 (WINGLETS)
(B744)
More flights by this aircraft type
Origin: KSFO San Francisco Intl
United States
Destination: KLAX Los Angeles Intl
United States
More flights between these airports :: More routes between these airports
Route: +SYMON SADDE8
File this flight plan on PilotEdge
Remarks: PBN / A1B1D1O1S2 DOF / 181009 REG / N487SB EET / KZAK0018 KZLA0023 PER / D RMK / TCAS
Altitude:
(Current/Filed)
29,000ft
Speed:
(Current/Filed)
486kts
Departed: 09-Oct-18 10:16 AM
Arrived: 09-Oct-18 11:18 AM
Distance/Time
Traveled:
294nm/1:02
Distance/Time
To Go:
Arrived

Flight Plot

Page will automatically refresh every two minutes.

Flight plan parsing failed; only flown route is shown


Map Options




Map Legend


Flown Route
Filed Route
Departure Airport
Arrival Airport
Navaid (VOR, NDB)
Fix

Horizontal Profiles

Position Reports

Time Latitude Longitude Heading Altitude Ground
Speed
09-Oct-18 09:53 37.619886 -122.397250 254 26ft 0kts
09-Oct-18 09:54 37.619886 -122.397250 254 26ft 0kts
09-Oct-18 09:55 37.619886 -122.397250 254 26ft 0kts
09-Oct-18 09:56 37.619886 -122.397250 254 26ft 0kts
09-Oct-18 09:57 37.619886 -122.397250 254 26ft 0kts
09-Oct-18 09:58 37.619886 -122.397250 254 26ft 0kts
09-Oct-18 09:59 37.619886 -122.397250 254 26ft 0kts
09-Oct-18 10:00 37.619886 -122.397250 254 26ft 0kts
09-Oct-18 10:01 37.619886 -122.397250 254 26ft 0kts
09-Oct-18 10:02 37.619886 -122.397250 254 26ft 0kts
09-Oct-18 10:03 37.619886 -122.397250 254 26ft 0kts
09-Oct-18 10:04 37.619886 -122.397250 254 26ft 0kts
09-Oct-18 10:05 37.619886 -122.397250 254 26ft 0kts
09-Oct-18 10:06 37.619886 -122.397250 254 26ft 0kts
09-Oct-18 10:07 37.619906 -122.397164 254 26ft 2kts
09-Oct-18 10:08 37.619879 -122.396203 296 26ft 2kts
09-Oct-18 10:09 37.619822 -122.396073 302 26ft 0kts
09-Oct-18 10:10 37.619822 -122.396073 302 26ft 0kts
09-Oct-18 10:11 37.620000 -122.395723 151 26ft 0kts
09-Oct-18 10:12 37.620000 -122.395723 151 26ft 0kts
09-Oct-18 10:13 37.622233 -122.390327 77 26ft 28kts
09-Oct-18 10:14 37.619816 -122.382530 116 26ft 21kts
09-Oct-18 10:15 37.615176 -122.380672 207 26ft 22kts
09-Oct-18 10:16 37.610808 -122.382581 112 26ft 12kts
09-Oct-18 10:17 37.610667 -122.381033 26 26ft 4kts
09-Oct-18 10:18 37.638981 -122.363519 18 2398ft 169kts
09-Oct-18 10:19 37.696235 -122.370144 327 4471ft 266kts
09-Oct-18 10:20 37.698360 -122.456737 230 8215ft 292kts
09-Oct-18 10:21 37.619693 -122.484234 174 11254ft 338kts
09-Oct-18 10:22 37.511922 -122.472386 161 13577ft 412kts
09-Oct-18 10:23 37.421446 -122.383685 130 17147ft 427kts
09-Oct-18 10:24 37.339338 -122.271101 129 19627ft 449kts
09-Oct-18 10:25 37.252358 -122.153480 130 22584ft 470kts
09-Oct-18 10:26 37.161449 -122.029997 129 25567ft 483kts
09-Oct-18 10:27 37.070214 -121.907345 129 28710ft 480kts
09-Oct-18 10:28 36.978728 -121.784917 130 28997ft 484kts
09-Oct-18 10:29 36.886756 -121.662320 129 28990ft 487kts
09-Oct-18 10:30 36.793845 -121.538927 129 28986ft 487kts
09-Oct-18 10:31 36.710023 -121.428012 129 28988ft 483kts
09-Oct-18 10:32 36.659496 -121.361331 129 28975ft 484kts
09-Oct-18 10:33 36.567338 -121.239660 129 28977ft 483kts
09-Oct-18 10:34 36.474557 -121.118324 129 28953ft 486kts
09-Oct-18 10:35 36.384067 -120.994841 125 28960ft 484kts
09-Oct-18 10:36 36.307210 -120.883987 126 28945ft 486kts
09-Oct-18 10:37 36.218877 -120.757879 126 28942ft 487kts
09-Oct-18 10:38 36.130013 -120.630479 126 28946ft 486kts
09-Oct-18 10:39 36.041344 -120.504003 126 28948ft 487kts
09-Oct-18 10:40 35.953341 -120.379716 126 28951ft 484kts
09-Oct-18 10:41 35.842475 -120.240058 141 28965ft 490kts
09-Oct-18 10:42 35.744722 -120.167132 145 28966ft 494kts
09-Oct-18 10:43 35.628086 -120.079443 145 28965ft 496kts
09-Oct-18 10:44 35.509669 -119.990610 145 28967ft 496kts
09-Oct-18 10:45 35.392147 -119.902284 145 28870ft 483kts
09-Oct-18 10:46 35.282386 -119.820519 145 27560ft 452kts
09-Oct-18 10:47 35.176034 -119.741724 145 25559ft 441kts
09-Oct-18 10:48 35.073196 -119.662895 146 23559ft 432kts
09-Oct-18 10:49 34.982762 -119.592538 146 21761ft 424kts
09-Oct-18 10:50 34.884238 -119.515049 146 19756ft 415kts
09-Oct-18 10:51 34.790527 -119.437037 146 18114ft 394kts
09-Oct-18 10:52 34.707152 -119.365575 146 17573ft 345kts
09-Oct-18 10:53 34.630881 -119.300599 146 16309ft 323kts
09-Oct-18 10:54 34.557453 -119.238862 146 14593ft 318kts
09-Oct-18 10:55 34.485388 -119.180249 145 13160ft 304kts
09-Oct-18 10:56 34.417561 -119.118486 141 12997ft 306kts
09-Oct-18 10:57 34.351212 -119.052796 133 13009ft 308kts
09-Oct-18 10:58 34.292682 -118.976658 131 12454ft 303kts
09-Oct-18 10:59 34.235899 -118.902702 132 11998ft 301kts
09-Oct-18 11:00 34.178532 -118.828389 134 11997ft 302kts
09-Oct-18 11:01 34.102582 -118.787273 164 11998ft 302kts
09-Oct-18 11:02 34.038088 -118.731406 115 12023ft 306kts
09-Oct-18 11:03 34.027026 -118.632589 93 12002ft 294kts
09-Oct-18 11:04 34.017454 -118.532479 95 10091ft 324kts
09-Oct-18 11:05 34.013035 -118.418341 83 7810ft 327kts
09-Oct-18 11:06 34.022792 -118.319273 82 7872ft 284kts
09-Oct-18 11:07 34.031461 -118.227842 82 6879ft 264kts
09-Oct-18 11:08 34.039750 -118.140358 82 5171ft 254kts
09-Oct-18 11:09 34.046669 -118.066933 82 4989ft 194kts
09-Oct-18 11:10 34.051544 -118.002399 96 4977ft 193kts
09-Oct-18 11:11 34.013055 -117.979364 221 3921ft 192kts
09-Oct-18 11:12 33.993325 -118.036839 255 3010ft 186kts
09-Oct-18 11:13 33.983611 -118.098073 262 3002ft 186kts
09-Oct-18 11:14 33.976968 -118.159942 263 2999ft 186kts
09-Oct-18 11:15 33.970780 -118.220173 262 3003ft 168kts
09-Oct-18 11:16 33.965319 -118.273482 262 2215ft 151kts
09-Oct-18 11:17 33.960320 -118.322289 262 1424ft 145kts
09-Oct-18 11:18 33.955355 -118.370535 262 699ft 144kts
09-Oct-18 11:19 33.950639 -118.416646 262 139ft 94kts
09-Oct-18 11:20 33.948982 -118.426204 225 139ft 0kts
09-Oct-18 11:21 33.948288 -118.426952 217 139ft 10kts
09-Oct-18 11:22 33.942766 -118.427117 173 139ft 23kts
09-Oct-18 11:23 33.936911 -118.426245 171 139ft 19kts
09-Oct-18 11:24 33.936862 -118.419571 82 139ft 22kts
09-Oct-18 11:25 33.937315 -118.412878 141 139ft 18kts
09-Oct-18 11:26 33.933338 -118.411254 83 139ft 19kts
09-Oct-18 11:27 33.932835 -118.405212 180 139ft 5kts
09-Oct-18 11:28 33.932760 -118.405200 168 139ft 0kts
09-Oct-18 11:29 33.932760 -118.405200 168 139ft 0kts
09-Oct-18 11:30 33.932760 -118.405200 168 139ft 0kts
09-Oct-18 11:31 33.932760 -118.405200 168 139ft 0kts
09-Oct-18 11:32 33.932760 -118.405200 168 139ft 0kts
09-Oct-18 11:33 33.932760 -118.405200 168 139ft 0kts
09-Oct-18 11:34 33.932760 -118.405200 168 139ft 0kts

Navigation Log

Ident Type
Flight plan parsing failed, navigation log unavailable